createdAt,value
2019-01-02T00:01:37.630Z,21.90
2019-01-02T00:04:05.657Z,21.90
2019-01-02T00:06:33.505Z,21.90
2019-01-02T00:09:01.542Z,21.90
2019-01-02T00:11:29.251Z,21.90
2019-01-02T00:13:57.316Z,21.90
2019-01-02T00:16:25.149Z,21.90
2019-01-02T00:18:52.892Z,21.90
2019-01-02T00:21:20.657Z,21.90
2019-01-02T00:23:48.484Z,21.90
2019-01-02T00:26:16.489Z,21.90
2019-01-02T00:28:44.199Z,21.90
2019-01-02T00:31:12.285Z,21.90
2019-01-02T00:33:40.085Z,21.90
2019-01-02T00:36:08.123Z,21.90
2019-01-02T00:38:35.839Z,21.90
2019-01-02T00:41:03.990Z,21.90
2019-01-02T00:43:31.679Z,21.90
2019-01-02T00:45:59.902Z,21.90
2019-01-02T00:48:27.579Z,21.90
2019-01-02T00:50:55.700Z,21.90
2019-01-02T00:53:23.459Z,21.80
2019-01-02T00:55:51.615Z,21.80
2019-01-02T00:58:19.395Z,21.80
2019-01-02T01:00:47.425Z,21.90
2019-01-02T01:03:15.131Z,21.80
2019-01-02T01:05:43.277Z,21.80
2019-01-02T01:08:10.970Z,21.80
2019-01-02T01:10:39.038Z,21.80
2019-01-02T01:13:06.805Z,21.80
2019-01-02T01:15:34.723Z,21.80
2019-01-02T01:18:02.495Z,21.80
2019-01-02T01:20:30.610Z,21.80
2019-01-02T01:22:58.481Z,21.80
2019-01-02T01:25:26.371Z,21.80
2019-01-02T01:27:54.074Z,21.80
2019-01-02T01:30:21.893Z,21.80
2019-01-02T01:32:49.620Z,21.80
2019-01-02T01:35:17.375Z,21.80
2019-01-02T01:37:45.997Z,21.80
2019-01-02T01:40:13.763Z,21.80
2019-01-02T01:42:41.397Z,21.80
2019-01-02T01:45:10.150Z,21.80
2019-01-02T01:47:37.901Z,21.80
2019-01-02T01:50:07.371Z,21.80
2019-01-02T01:52:35.237Z,21.80
2019-01-02T01:55:03.319Z,21.80
2019-01-02T01:57:31.030Z,21.80
2019-01-02T01:59:58.812Z,21.80
2019-01-02T02:02:26.875Z,21.80
2019-01-02T02:04:54.615Z,21.80
2019-01-02T02:07:22.399Z,21.90
2019-01-02T02:09:50.113Z,21.80
2019-01-02T02:12:17.864Z,21.80
2019-01-02T02:14:45.781Z,21.80
2019-01-02T02:17:13.526Z,21.90
2019-01-02T02:19:41.325Z,21.90
2019-01-02T02:22:09.094Z,21.80
2019-01-02T02:24:36.936Z,21.80
2019-01-02T02:27:04.846Z,21.80
2019-01-02T02:29:32.556Z,21.90
2019-01-02T02:32:00.334Z,21.90
2019-01-02T02:34:28.047Z,21.80
2019-01-02T02:36:55.925Z,21.80
2019-01-02T02:39:23.908Z,21.80
2019-01-02T02:41:51.993Z,21.90
2019-01-02T02:44:19.849Z,21.80
2019-01-02T02:46:47.926Z,21.80
2019-01-02T02:49:15.723Z,21.80
2019-01-02T02:51:43.459Z,21.80
2019-01-02T02:54:11.642Z,21.80
2019-01-02T02:56:39.675Z,21.90
2019-01-02T02:59:07.684Z,21.80
2019-01-02T03:01:35.833Z,21.80
2019-01-02T03:04:03.949Z,21.80
2019-01-02T03:06:32.159Z,21.80
2019-01-02T03:09:00.156Z,21.80
2019-01-02T03:11:27.975Z,21.80
2019-01-02T03:13:55.959Z,21.80
2019-01-02T03:16:23.919Z,21.80
2019-01-02T03:18:51.851Z,21.80
2019-01-02T03:21:19.899Z,21.80
2019-01-02T03:23:47.684Z,21.80
2019-01-02T03:26:15.493Z,21.80
2019-01-02T03:28:43.227Z,21.80
2019-01-02T03:31:11.293Z,21.80
2019-01-02T03:33:39.327Z,21.80
2019-01-02T03:36:07.192Z,21.80
2019-01-02T03:38:34.841Z,21.80
2019-01-02T03:41:02.563Z,21.80
2019-01-02T03:43:30.371Z,21.80
2019-01-02T03:45:58.151Z,21.80
2019-01-02T03:48:25.959Z,21.80
2019-01-02T03:50:53.797Z,21.80
2019-01-02T03:53:21.418Z,21.80
2019-01-02T03:55:49.141Z,21.80
2019-01-02T03:58:16.779Z,21.80
2019-01-02T04:00:44.532Z,21.80
2019-01-02T04:03:12.228Z,21.80
2019-01-02T04:05:39.976Z,21.80
2019-01-02T04:08:07.742Z,21.80
2019-01-02T04:10:35.476Z,21.80
2019-01-02T04:13:03.244Z,21.80
2019-01-02T04:15:31.030Z,21.80
2019-01-02T04:17:58.796Z,21.80
2019-01-02T04:20:26.466Z,21.80
2019-01-02T04:22:54.146Z,21.80
2019-01-02T04:25:21.952Z,21.80
2019-01-02T04:27:49.692Z,21.80
2019-01-02T04:30:17.450Z,21.80
2019-01-02T04:32:45.168Z,21.80
2019-01-02T04:35:12.900Z,21.80
2019-01-02T04:37:40.654Z,21.80
2019-01-02T04:40:11.834Z,21.80
2019-01-02T04:42:39.570Z,21.80
2019-01-02T04:45:08.496Z,21.80
2019-01-02T04:47:36.230Z,21.80
2019-01-02T04:50:05.581Z,21.80
2019-01-02T04:52:33.297Z,21.80
2019-01-02T04:55:01.044Z,21.80
2019-01-02T04:57:28.788Z,21.80
2019-01-02T04:59:56.599Z,21.80
2019-01-02T05:02:24.435Z,21.80
2019-01-02T05:04:54.680Z,21.80
2019-01-02T05:07:22.366Z,21.80
2019-01-02T05:09:50.151Z,21.80
2019-01-02T05:12:17.985Z,21.80
2019-01-02T05:14:45.723Z,21.80
2019-01-02T05:17:13.457Z,21.80
2019-01-02T05:19:41.252Z,21.80
2019-01-02T05:22:08.945Z,21.80
2019-01-02T05:24:36.687Z,21.80
2019-01-02T05:27:04.361Z,21.80
2019-01-02T05:29:32.160Z,21.80
2019-01-02T05:31:59.900Z,21.80
2019-01-02T05:34:27.630Z,21.80
2019-01-02T05:36:55.411Z,21.80
2019-01-02T05:39:23.176Z,21.80
2019-01-02T05:41:50.818Z,21.80
2019-01-02T05:44:18.500Z,21.80
2019-01-02T05:46:46.288Z,21.80
2019-01-02T05:49:14.016Z,21.80
2019-01-02T05:51:41.828Z,21.80
2019-01-02T05:54:09.633Z,21.80
2019-01-02T05:56:37.365Z,21.80
2019-01-02T05:59:05.091Z,21.80
2019-01-02T06:01:32.822Z,21.80
2019-01-02T06:04:00.695Z,21.80
2019-01-02T06:06:28.399Z,21.80
2019-01-02T06:08:56.042Z,21.80
2019-01-02T06:11:23.857Z,21.80
2019-01-02T06:13:51.525Z,21.80
2019-01-02T06:16:23.775Z,21.80
2019-01-02T06:18:51.666Z,21.80
2019-01-02T06:21:19.709Z,21.80
2019-01-02T06:23:47.385Z,21.80
2019-01-02T06:26:14.971Z,21.80
2019-01-02T06:28:42.586Z,21.90
2019-01-02T06:31:10.298Z,22.00
2019-01-02T06:33:37.956Z,22.00
2019-01-02T06:36:05.628Z,22.10
2019-01-02T06:38:33.236Z,22.10
2019-01-02T06:41:00.901Z,22.10
2019-01-02T06:43:28.644Z,22.10
2019-01-02T06:45:56.386Z,22.20
2019-01-02T06:48:24.120Z,22.20
2019-01-02T06:50:51.819Z,22.20
2019-01-02T06:53:19.489Z,22.20
2019-01-02T06:55:47.094Z,22.20
2019-01-02T06:58:14.798Z,22.30
2019-01-02T07:00:42.400Z,22.20
2019-01-02T07:03:10.046Z,22.20
2019-01-02T07:05:37.784Z,22.20
2019-01-02T07:08:05.389Z,22.20
2019-01-02T07:10:33.057Z,22.20
2019-01-02T07:13:00.838Z,22.20
2019-01-02T07:15:28.443Z,22.30
2019-01-02T07:17:56.147Z,22.20
2019-01-02T07:20:23.855Z,22.20
2019-01-02T07:22:51.520Z,22.20
2019-01-02T07:25:19.155Z,22.20
2019-01-02T07:27:46.841Z,22.20
2019-01-02T07:30:18.816Z,22.30
2019-01-02T07:32:46.428Z,22.30
2019-01-02T07:35:15.687Z,22.30
2019-01-02T07:37:50.971Z,22.30
2019-01-02T07:40:20.431Z,22.30
2019-01-02T07:42:55.456Z,22.40
2019-01-02T07:45:24.793Z,22.40
2019-01-02T07:47:57.017Z,22.30
2019-01-02T07:50:31.935Z,22.20
2019-01-02T07:53:01.255Z,22.10
2019-01-02T07:55:47.289Z,22.10
2019-01-02T07:58:28.839Z,22.10
2019-01-02T08:01:14.879Z,22.00
2019-01-02T08:03:56.103Z,22.10
2019-01-02T08:06:25.375Z,22.00
2019-01-02T08:09:00.392Z,22.00
2019-01-02T08:11:29.650Z,22.00
2019-01-02T08:14:15.562Z,22.00
2019-01-02T08:16:44.851Z,22.00
2019-01-02T08:19:14.107Z,21.90
2019-01-02T08:22:00.011Z,21.90
2019-01-02T08:24:31.996Z,21.90
2019-01-02T08:27:01.347Z,21.90
2019-01-02T08:29:42.650Z,21.90
2019-01-02T08:32:14.920Z,21.90
2019-01-02T08:34:53.328Z,21.90
2019-01-02T08:37:28.700Z,21.90
2019-01-02T08:40:04.068Z,21.90
2019-01-02T08:42:33.399Z,21.90
2019-01-02T08:45:02.765Z,21.90
2019-01-02T08:47:41.289Z,21.90
2019-01-02T08:50:16.443Z,21.90
2019-01-02T08:52:45.846Z,21.80
2019-01-02T08:55:21.069Z,21.90
2019-01-02T08:58:08.262Z,21.90
2019-01-02T09:00:46.283Z,21.90
2019-01-02T09:03:32.200Z,21.90
2019-01-02T09:06:07.309Z,22.00
2019-01-02T09:08:36.681Z,22.00
2019-01-02T09:11:08.916Z,22.00
2019-01-02T09:13:53.380Z,22.10
2019-01-02T09:16:40.814Z,22.10
2019-01-02T09:19:10.107Z,22.20
2019-01-02T09:21:45.654Z,22.20
2019-01-02T09:24:14.968Z,22.30
2019-01-02T09:26:44.237Z,22.30
2019-01-02T09:29:22.592Z,22.40
2019-01-02T09:31:57.809Z,22.30
2019-01-02T09:34:32.931Z,22.30
2019-01-02T09:37:18.903Z,22.30
2019-01-02T09:39:51.059Z,22.30
2019-01-02T09:42:20.336Z,22.20
2019-01-02T09:44:55.837Z,22.30
2019-01-02T09:47:25.182Z,22.20
2019-01-02T09:50:00.454Z,22.30
2019-01-02T09:52:32.515Z,22.30
2019-01-02T09:55:10.721Z,22.30
2019-01-02T09:57:45.647Z,22.30
2019-01-02T10:00:33.240Z,22.30
2019-01-02T10:03:20.477Z,22.30
2019-01-02T10:05:55.237Z,22.20
2019-01-02T10:08:24.505Z,22.30
2019-01-02T10:10:53.827Z,22.20
2019-01-02T10:13:39.635Z,22.20
2019-01-02T10:16:11.697Z,22.30
2019-01-02T10:18:53.103Z,22.70
2019-01-02T10:21:28.225Z,22.70
2019-01-02T10:24:06.527Z,22.50
2019-01-02T10:26:35.837Z,22.40
2019-01-02T10:29:20.151Z,22.40
2019-01-02T10:31:49.469Z,22.30
2019-01-02T10:34:24.722Z,22.30
2019-01-02T10:36:56.982Z,22.30
2019-01-02T10:39:42.879Z,22.30
2019-01-02T10:42:12.308Z,22.20
2019-01-02T10:44:50.529Z,22.20
2019-01-02T10:47:25.600Z,22.10
2019-01-02T10:49:54.875Z,22.10
2019-01-02T10:52:30.073Z,22.10
2019-01-02T10:55:05.341Z,22.10
2019-01-02T10:57:46.438Z,22.10
2019-01-02T11:00:24.609Z,22.00
2019-01-02T11:03:10.480Z,22.00
2019-01-02T11:05:56.263Z,22.00
2019-01-02T11:08:25.562Z,22.00
2019-01-02T11:11:00.563Z,22.00
2019-01-02T11:13:29.852Z,21.90
2019-01-02T11:15:59.156Z,21.90
2019-01-02T11:18:40.551Z,21.90
2019-01-02T11:21:12.594Z,21.90
2019-01-02T11:23:44.903Z,21.90
2019-01-02T11:26:14.235Z,21.90
2019-01-02T11:28:46.585Z,21.90
2019-01-02T11:31:16.204Z,21.90
2019-01-02T11:33:45.456Z,21.90
2019-01-02T11:36:17.434Z,21.90
2019-01-02T11:39:01.556Z,21.90
2019-01-02T11:41:30.784Z,21.90
2019-01-02T11:44:11.930Z,21.90
2019-01-02T11:46:39.589Z,21.90
2019-01-02T11:49:07.223Z,21.90
2019-01-02T11:51:34.870Z,21.90
2019-01-02T11:54:02.626Z,21.90
2019-01-02T11:56:30.351Z,22.00
2019-01-02T11:58:58.070Z,22.00
2019-01-02T12:01:25.827Z,22.00
2019-01-02T12:03:53.556Z,22.00
2019-01-02T12:06:21.252Z,22.00
2019-01-02T12:08:48.918Z,22.00
2019-01-02T12:11:16.567Z,21.90
2019-01-02T12:13:44.274Z,22.00
2019-01-02T12:16:11.894Z,22.00
2019-01-02T12:18:39.507Z,22.00
2019-01-02T12:21:07.188Z,22.00
2019-01-02T12:23:34.802Z,22.00
2019-01-02T12:26:02.472Z,22.00
2019-01-02T12:28:30.227Z,22.00
2019-01-02T12:30:57.953Z,22.00
2019-01-02T12:33:25.648Z,22.00
2019-01-02T12:35:53.392Z,22.00
2019-01-02T12:38:21.060Z,22.00
2019-01-02T12:40:48.818Z,22.00
2019-01-02T12:43:16.498Z,22.00
2019-01-02T12:45:44.136Z,22.00
2019-01-02T12:48:11.808Z,22.00
2019-01-02T12:50:39.484Z,21.90
2019-01-02T12:53:07.442Z,22.00
2019-01-02T12:55:35.138Z,22.00
2019-01-02T12:58:02.721Z,22.00
2019-01-02T13:00:31.999Z,22.00
2019-01-02T13:03:19.122Z,21.90
2019-01-02T13:06:04.696Z,21.90
2019-01-02T13:08:36.750Z,21.90
2019-01-02T13:11:06.091Z,21.90
2019-01-02T13:13:47.225Z,21.90
2019-01-02T13:16:16.521Z,21.90
2019-01-02T13:18:54.562Z,21.90
2019-01-02T13:21:24.559Z,21.90
2019-01-02T13:23:56.658Z,21.90
2019-01-02T13:26:26.004Z,21.90
2019-01-02T13:28:55.326Z,21.90
2019-01-02T13:31:24.695Z,21.90
2019-01-02T13:33:56.656Z,21.90
2019-01-02T13:36:34.723Z,21.90
2019-01-02T13:39:04.289Z,21.90
2019-01-02T13:41:33.597Z,21.90
2019-01-02T13:44:11.639Z,21.90
2019-01-02T13:46:40.866Z,21.90
2019-01-02T13:49:10.103Z,22.00
2019-01-02T13:51:37.734Z,22.00
2019-01-02T13:54:05.375Z,22.00
2019-01-02T13:56:33.051Z,22.10
2019-01-02T13:59:00.679Z,22.00
2019-01-02T14:01:29.385Z,22.00
2019-01-02T14:03:57.008Z,22.00
2019-01-02T14:06:24.656Z,22.00
2019-01-02T14:08:52.296Z,21.90
2019-01-02T14:11:19.978Z,21.90
2019-01-02T14:13:47.643Z,21.90
2019-01-02T14:16:15.251Z,21.90
2019-01-02T14:18:42.973Z,21.80
2019-01-02T14:21:10.593Z,21.80
2019-01-02T14:23:38.242Z,21.80
2019-01-02T14:26:05.894Z,21.80
2019-01-02T14:28:33.514Z,21.80
2019-01-02T14:31:01.253Z,21.80
2019-01-02T14:33:28.997Z,21.80
2019-01-02T14:35:56.659Z,21.80
2019-01-02T14:38:24.349Z,21.80
2019-01-02T14:40:52.077Z,21.80
2019-01-02T14:43:19.762Z,21.80
2019-01-02T14:45:47.361Z,21.80
2019-01-02T14:48:15.101Z,21.80
2019-01-02T14:50:42.768Z,21.80
2019-01-02T14:53:10.385Z,21.80
2019-01-02T14:55:38.085Z,21.80
2019-01-02T14:58:05.747Z,21.80
2019-01-02T15:00:33.343Z,21.80
2019-01-02T15:03:01.063Z,21.80
2019-01-02T15:05:28.719Z,21.80
2019-01-02T15:07:56.315Z,21.80
2019-01-02T15:10:23.968Z,21.80
2019-01-02T15:12:51.569Z,21.80
2019-01-02T15:15:19.177Z,21.80
2019-01-02T15:17:46.829Z,21.80
2019-01-02T15:20:14.495Z,21.80
2019-01-02T15:22:42.167Z,21.80
2019-01-02T15:25:09.855Z,21.80
2019-01-02T15:27:37.527Z,21.80
2019-01-02T15:30:06.711Z,21.80
2019-01-02T15:32:34.393Z,21.80
2019-01-02T15:35:02.105Z,21.80
2019-01-02T15:37:29.752Z,21.80
2019-01-02T15:39:57.475Z,21.80
2019-01-02T15:42:25.203Z,21.80
2019-01-02T15:44:52.826Z,21.80
2019-01-02T15:47:20.529Z,21.80
2019-01-02T15:49:48.269Z,21.80
2019-01-02T15:52:16.029Z,21.80
2019-01-02T15:54:43.633Z,21.80
2019-01-02T15:57:11.246Z,21.80
2019-01-02T15:59:38.988Z,21.80
2019-01-02T16:02:06.674Z,21.80
2019-01-02T16:04:34.363Z,21.80
2019-01-02T16:07:02.149Z,21.80
2019-01-02T16:09:29.833Z,21.80
2019-01-02T16:11:57.419Z,21.80
2019-01-02T16:14:25.111Z,21.80
2019-01-02T16:16:52.811Z,21.80
2019-01-02T16:19:20.601Z,21.80
2019-01-02T16:21:49.283Z,21.80
2019-01-02T16:24:16.953Z,21.80
2019-01-02T16:26:44.597Z,21.80
2019-01-02T16:29:12.335Z,21.80
2019-01-02T16:31:39.979Z,21.90
2019-01-02T16:34:07.586Z,22.00
2019-01-02T16:36:35.266Z,22.10
2019-01-02T16:39:02.981Z,22.20
2019-01-02T16:41:30.595Z,22.20
2019-01-02T16:43:58.236Z,22.20
2019-01-02T16:46:25.840Z,22.50
2019-01-02T16:48:53.465Z,22.50
2019-01-02T16:51:21.160Z,22.60
2019-01-02T16:53:48.883Z,22.50
2019-01-02T16:56:16.647Z,22.40
2019-01-02T16:58:44.349Z,22.40
2019-01-02T17:01:12.133Z,22.40
2019-01-02T17:03:39.825Z,22.40
2019-01-02T17:06:07.509Z,22.40
2019-01-02T17:08:35.275Z,22.40
2019-01-02T17:11:03.023Z,22.40
2019-01-02T17:13:30.722Z,22.40
2019-01-02T17:15:58.383Z,22.40
2019-01-02T17:18:26.141Z,22.40
2019-01-02T17:20:53.823Z,22.40
2019-01-02T17:23:21.557Z,22.50
2019-01-02T17:25:49.243Z,22.50
2019-01-02T17:28:16.925Z,22.50
2019-01-02T17:30:44.533Z,22.40
2019-01-02T17:33:12.191Z,22.40
2019-01-02T17:35:39.792Z,22.30
2019-01-02T17:38:07.413Z,22.30
2019-01-02T17:40:35.159Z,22.30
2019-01-02T17:43:02.874Z,22.30
2019-01-02T17:45:30.566Z,22.30
2019-01-02T17:47:58.299Z,22.20
2019-01-02T17:50:29.373Z,22.20
2019-01-02T17:52:56.998Z,22.30
2019-01-02T17:55:24.740Z,22.20
2019-01-02T17:57:52.474Z,22.20
2019-01-02T18:00:20.188Z,22.20
2019-01-02T18:02:47.793Z,22.30
2019-01-02T18:05:15.447Z,22.20
2019-01-02T18:07:43.139Z,22.30
2019-01-02T18:10:10.899Z,22.30
2019-01-02T18:12:41.466Z,22.30
2019-01-02T18:15:09.153Z,22.30
2019-01-02T18:17:36.760Z,22.30
2019-01-02T18:20:05.785Z,22.30
2019-01-02T18:22:33.483Z,22.30
2019-01-02T18:25:01.148Z,22.40
2019-01-02T18:27:28.884Z,22.40
2019-01-02T18:29:56.493Z,22.30
2019-01-02T18:32:24.095Z,22.40
2019-01-02T18:34:51.796Z,22.40
2019-01-02T18:37:19.479Z,22.40
2019-01-02T18:39:47.136Z,22.50
2019-01-02T18:42:17.449Z,22.40
2019-01-02T18:44:47.561Z,22.40
2019-01-02T18:47:15.223Z,22.40
2019-01-02T18:49:42.885Z,22.40
2019-01-02T18:52:10.486Z,22.40
2019-01-02T18:54:38.113Z,22.40
2019-01-02T18:57:05.755Z,22.40
2019-01-02T18:59:36.375Z,22.40
2019-01-02T19:02:04.159Z,22.30
2019-01-02T19:04:31.869Z,22.30
2019-01-02T19:06:59.595Z,22.30
2019-01-02T19:09:27.325Z,22.30
2019-01-02T19:11:54.967Z,22.30
2019-01-02T19:14:22.721Z,22.30
2019-01-02T19:16:50.443Z,22.30
2019-01-02T19:19:18.105Z,22.30
2019-01-02T19:21:45.715Z,22.40
2019-01-02T19:24:13.476Z,22.40
2019-01-02T19:26:41.165Z,22.40
2019-01-02T19:29:08.830Z,22.40
2019-01-02T19:31:36.499Z,22.30
2019-01-02T19:34:04.135Z,22.30
2019-01-02T19:36:31.825Z,22.30
2019-01-02T19:38:59.562Z,22.30
2019-01-02T19:41:27.223Z,22.20
2019-01-02T19:43:54.914Z,22.30
2019-01-02T19:46:22.578Z,22.20
2019-01-02T19:48:50.403Z,22.20
2019-01-02T19:51:18.063Z,22.20
2019-01-02T19:53:45.730Z,22.20
2019-01-02T19:56:13.424Z,22.20
2019-01-02T19:58:41.057Z,22.20
2019-01-02T20:01:08.797Z,22.20
2019-01-02T20:03:36.413Z,22.20
2019-01-02T20:06:04.169Z,22.20
2019-01-02T20:08:31.783Z,22.20
2019-01-02T20:10:59.522Z,22.20
2019-01-02T20:13:27.190Z,22.20
2019-01-02T20:15:54.820Z,22.20
2019-01-02T20:18:22.541Z,22.20
2019-01-02T20:20:50.156Z,22.10
2019-01-02T20:23:17.785Z,22.10
2019-01-02T20:25:45.503Z,22.10
2019-01-02T20:28:13.127Z,22.10
2019-01-02T20:30:40.707Z,22.10
2019-01-02T20:33:08.381Z,22.10
2019-01-02T20:35:36.076Z,22.10
2019-01-02T20:38:03.737Z,22.10
2019-01-02T20:40:31.433Z,22.10
2019-01-02T20:42:59.036Z,22.10
2019-01-02T20:45:26.769Z,22.10
2019-01-02T20:47:54.396Z,22.10
2019-01-02T20:50:22.085Z,22.10
2019-01-02T20:52:49.730Z,22.10
2019-01-02T20:55:17.327Z,22.10
2019-01-02T20:57:44.934Z,22.10
2019-01-02T21:00:12.610Z,22.10
2019-01-02T21:02:40.280Z,22.10
2019-01-02T21:05:07.887Z,22.00
2019-01-02T21:07:35.631Z,22.00
2019-01-02T21:10:03.378Z,22.10
2019-01-02T21:12:31.032Z,22.10
2019-01-02T21:14:58.774Z,22.10
2019-01-02T21:17:26.483Z,22.10
2019-01-02T21:19:54.180Z,22.10
2019-01-02T21:22:21.911Z,22.10
2019-01-02T21:24:49.520Z,22.10
2019-01-02T21:27:17.142Z,22.10
2019-01-02T21:29:44.798Z,22.10
2019-01-02T21:32:12.490Z,22.10
2019-01-02T21:34:40.084Z,22.10
2019-01-02T21:37:07.747Z,22.00
2019-01-02T21:39:35.330Z,22.00
2019-01-02T21:42:02.925Z,22.00
2019-01-02T21:44:30.578Z,22.00
2019-01-02T21:47:02.646Z,22.00
2019-01-02T21:49:30.291Z,22.00
2019-01-02T21:51:57.968Z,22.00
2019-01-02T21:54:25.634Z,22.00
2019-01-02T21:56:53.312Z,22.00
2019-01-02T21:59:21.014Z,22.00
2019-01-02T22:01:48.620Z,22.00
2019-01-02T22:04:16.282Z,22.00
2019-01-02T22:06:43.930Z,22.00
2019-01-02T22:09:11.528Z,21.90
2019-01-02T22:11:39.191Z,21.90
2019-01-02T22:14:06.867Z,21.90
2019-01-02T22:16:34.506Z,21.90
2019-01-02T22:19:02.224Z,21.90
2019-01-02T22:21:29.904Z,21.90
2019-01-02T22:23:57.769Z,21.90
2019-01-02T22:26:25.533Z,21.90
2019-01-02T22:28:53.150Z,21.90
2019-01-02T22:31:20.771Z,21.90
2019-01-02T22:33:48.474Z,21.90
2019-01-02T22:36:16.138Z,21.90
2019-01-02T22:38:43.796Z,21.90
2019-01-02T22:41:11.475Z,21.90
2019-01-02T22:43:39.117Z,21.90
2019-01-02T22:46:06.740Z,21.90
2019-01-02T22:48:34.439Z,21.90
2019-01-02T22:51:02.209Z,21.90
2019-01-02T22:53:29.846Z,21.90
2019-01-02T22:55:57.522Z,21.90
2019-01-02T22:58:25.187Z,21.90
2019-01-02T23:01:09.352Z,21.90
2019-01-02T23:03:47.458Z,21.90
2019-01-02T23:06:22.463Z,21.90
2019-01-02T23:09:07.930Z,21.90
2019-01-02T23:11:49.355Z,21.90
2019-01-02T23:14:35.063Z,21.90
2019-01-02T23:17:04.312Z,21.90
2019-01-02T23:19:33.620Z,21.90
2019-01-02T23:22:02.966Z,21.90
2019-01-02T23:24:35.103Z,21.90
2019-01-02T23:27:10.385Z,21.90
2019-01-02T23:29:45.300Z,21.90
2019-01-02T23:32:17.166Z,21.90
2019-01-02T23:35:04.391Z,21.90
2019-01-02T23:37:33.800Z,21.90
2019-01-02T23:40:03.208Z,21.90
2019-01-02T23:42:38.346Z,21.90
2019-01-02T23:45:24.101Z,21.90
2019-01-02T23:47:58.939Z,21.90
2019-01-02T23:50:33.998Z,21.90
2019-01-02T23:53:03.354Z,21.90
2019-01-02T23:55:50.800Z,21.90
2019-01-02T23:58:22.637Z,21.90
